RYR1FD EGNM-EIDW
Flight info
| Callsign | RYR1FD |
|---|---|
| Flight time | N/A |
| Altitude | 28000 |
| Route | POL Y70 KOLID UL70 GUNTU Z196 LELDO M145 BAGSO BAGSO4L |
| Aircraft | B738/M-SDE2E3FGHIRWXY/LB1 |
Departure
| Time | 2026-05-06 17:38 |
|---|---|
| Airport | Leeds Bradford Airport (EGNM) |
Arrival
| Time | N/A |
|---|---|
| Airport | Dublin Airport (EIDW) |
| Time | Latitude | Longitude | Altitude | Speed | Heading |
|---|---|---|---|---|---|
| 2026-05-06 17:37 | 53.77105 | -1.86138 | 8444 ft | 354 kts | 259° |
| 2026-05-06 17:38 | 53.76623 | -1.90416 | 9432 ft | 358 kts | 260° |
| 2026-05-06 17:38 | 53.76154 | -1.94582 | 10352 ft | 362 kts | 260° |
| 2026-05-06 17:38 | 53.75726 | -1.98390 | 11194 ft | 365 kts | 260° |
| 2026-05-06 17:38 | 53.75243 | -2.02663 | 12100 ft | 369 kts | 261° |
| 2026-05-06 17:39 | 53.74760 | -2.06934 | 12993 ft | 372 kts | 261° |
| 2026-05-06 17:39 | 53.74182 | -2.11243 | 13818 ft | 377 kts | 255° |
| 2026-05-06 17:39 | 53.73324 | -2.15427 | 14645 ft | 382 kts | 250° |
| 2026-05-06 17:39 | 53.72252 | -2.19585 | 15473 ft | 386 kts | 247° |
| 2026-05-06 17:40 | 53.71107 | -2.23679 | 16263 ft | 390 kts | 246° |
| 2026-05-06 17:40 | 53.69939 | -2.27845 | 17026 ft | 394 kts | 247° |
| 2026-05-06 17:40 | 53.68785 | -2.32063 | 17794 ft | 397 kts | 247° |
| 2026-05-06 17:40 | 53.67641 | -2.36358 | 18517 ft | 401 kts | 248° |
| 2026-05-06 17:41 | 53.66512 | -2.40667 | 19241 ft | 405 kts | 248° |
| 2026-05-06 17:41 | 53.65379 | -2.45021 | 19892 ft | 409 kts | 248° |
| 2026-05-06 17:41 | 53.64222 | -2.49469 | 20528 ft | 414 kts | 248° |
| 2026-05-06 17:41 | 53.63054 | -2.53948 | 21154 ft | 418 kts | 248° |
| 2026-05-06 17:42 | 53.61881 | -2.58430 | 21797 ft | 422 kts | 248° |
| 2026-05-06 17:42 | 53.60695 | -2.62948 | 22453 ft | 425 kts | 248° |
| 2026-05-06 17:42 | 53.59493 | -2.67523 | 23037 ft | 430 kts | 248° |
| 2026-05-06 17:42 | 53.58380 | -2.72139 | 23636 ft | 433 kts | 252° |
| 2026-05-06 17:43 | 53.57749 | -2.75860 | 24077 ft | 434 kts | 259° |
| 2026-05-06 17:43 | 53.57477 | -2.79146 | 24436 ft | 435 kts | 267° |